sensor_id;sensor_type;location;lat;lon;timestamp;temperature;humidity
20856;DHT22;63058;49.424;8.420;2023-05-07T00:01:37;20.30;68.20
20856;DHT22;63058;49.424;8.420;2023-05-07T00:04:02;20.20;68.20
20856;DHT22;63058;49.424;8.420;2023-05-07T00:06:29;20.20;68.30
20856;DHT22;63058;49.424;8.420;2023-05-07T00:08:56;20.20;68.40
20856;DHT22;63058;49.424;8.420;2023-05-07T00:11:22;20.20;68.50
20856;DHT22;63058;49.424;8.420;2023-05-07T00:13:48;20.20;68.70
20856;DHT22;63058;49.424;8.420;2023-05-07T00:16:14;20.20;68.70
20856;DHT22;63058;49.424;8.420;2023-05-07T00:18:40;20.30;68.70
20856;DHT22;63058;49.424;8.420;2023-05-07T00:21:05;20.20;68.40
20856;DHT22;63058;49.424;8.420;2023-05-07T00:23:31;20.20;68.50
20856;DHT22;63058;49.424;8.420;2023-05-07T00:25:57;20.20;68.60
20856;DHT22;63058;49.424;8.420;2023-05-07T00:28:22;20.10;68.50
20856;DHT22;63058;49.424;8.420;2023-05-07T00:30:48;20.10;68.70
20856;DHT22;63058;49.424;8.420;2023-05-07T00:33:15;20.10;68.70
20856;DHT22;63058;49.424;8.420;2023-05-07T00:35:42;20.00;69.00
20856;DHT22;63058;49.424;8.420;2023-05-07T00:38:07;19.90;69.30
20856;DHT22;63058;49.424;8.420;2023-05-07T00:40:33;19.90;69.30
20856;DHT22;63058;49.424;8.420;2023-05-07T00:43:00;19.90;69.30
20856;DHT22;63058;49.424;8.420;2023-05-07T00:45:29;19.90;69.30
20856;DHT22;63058;49.424;8.420;2023-05-07T00:47:59;19.80;69.40
20856;DHT22;63058;49.424;8.420;2023-05-07T00:50:26;19.80;69.60
20856;DHT22;63058;49.424;8.420;2023-05-07T00:52:53;19.70;69.50
20856;DHT22;63058;49.424;8.420;2023-05-07T00:55:19;19.70;69.80
20856;DHT22;63058;49.424;8.420;2023-05-07T00:57:45;19.70;70.00
20856;DHT22;63058;49.424;8.420;2023-05-07T01:00:12;19.70;69.90
20856;DHT22;63058;49.424;8.420;2023-05-07T01:02:41;19.70;69.80
20856;DHT22;63058;49.424;8.420;2023-05-07T01:05:09;19.70;70.00
20856;DHT22;63058;49.424;8.420;2023-05-07T01:07:37;19.70;69.80
20856;DHT22;63058;49.424;8.420;2023-05-07T01:10:05;19.70;69.90
20856;DHT22;63058;49.424;8.420;2023-05-07T01:12:31;19.60;69.80
20856;DHT22;63058;49.424;8.420;2023-05-07T01:14:58;19.60;69.80
20856;DHT22;63058;49.424;8.420;2023-05-07T01:17:24;19.60;69.90
20856;DHT22;63058;49.424;8.420;2023-05-07T01:19:50;19.50;69.90
20856;DHT22;63058;49.424;8.420;2023-05-07T01:22:17;19.50;70.00
20856;DHT22;63058;49.424;8.420;2023-05-07T01:24:46;19.40;70.20
20856;DHT22;63058;49.424;8.420;2023-05-07T01:27:11;19.30;70.30
20856;DHT22;63058;49.424;8.420;2023-05-07T01:29:37;19.20;70.60
20856;DHT22;63058;49.424;8.420;2023-05-07T01:32:03;19.10;70.60
20856;DHT22;63058;49.424;8.420;2023-05-07T01:34:32;19.10;70.90
20856;DHT22;63058;49.424;8.420;2023-05-07T01:37:00;19.00;71.20
20856;DHT22;63058;49.424;8.420;2023-05-07T01:39:28;19.00;71.20
20856;DHT22;63058;49.424;8.420;2023-05-07T01:41:58;19.00;71.30
20856;DHT22;63058;49.424;8.420;2023-05-07T01:44:26;19.00;71.60
20856;DHT22;63058;49.424;8.420;2023-05-07T01:46:52;19.00;71.40
20856;DHT22;63058;49.424;8.420;2023-05-07T01:49:18;18.90;71.40
20856;DHT22;63058;49.424;8.420;2023-05-07T01:51:45;18.90;71.50
20856;DHT22;63058;49.424;8.420;2023-05-07T01:54:10;18.80;71.40
20856;DHT22;63058;49.424;8.420;2023-05-07T01:56:36;18.80;71.50
20856;DHT22;63058;49.424;8.420;2023-05-07T01:59:02;18.70;71.90
20856;DHT22;63058;49.424;8.420;2023-05-07T02:01:28;18.60;71.90
20856;DHT22;63058;49.424;8.420;2023-05-07T02:03:53;18.50;72.20
20856;DHT22;63058;49.424;8.420;2023-05-07T02:06:19;18.30;72.30
20856;DHT22;63058;49.424;8.420;2023-05-07T02:08:47;18.40;72.70
20856;DHT22;63058;49.424;8.420;2023-05-07T02:11:12;18.40;72.80
20856;DHT22;63058;49.424;8.420;2023-05-07T02:13:38;18.40;72.80
20856;DHT22;63058;49.424;8.420;2023-05-07T02:16:04;18.40;72.90
20856;DHT22;63058;49.424;8.420;2023-05-07T02:18:30;18.40;73.10
20856;DHT22;63058;49.424;8.420;2023-05-07T02:20:57;18.40;73.20
20856;DHT22;63058;49.424;8.420;2023-05-07T02:23:22;18.40;73.30
20856;DHT22;63058;49.424;8.420;2023-05-07T02:25:48;18.40;73.30
20856;DHT22;63058;49.424;8.420;2023-05-07T02:28:14;18.40;73.50
20856;DHT22;63058;49.424;8.420;2023-05-07T02:30:40;18.40;73.40
20856;DHT22;63058;49.424;8.420;2023-05-07T02:33:06;18.40;73.50
20856;DHT22;63058;49.424;8.420;2023-05-07T02:35:33;18.40;73.60
20856;DHT22;63058;49.424;8.420;2023-05-07T02:37:59;18.40;73.70
20856;DHT22;63058;49.424;8.420;2023-05-07T02:40:25;18.40;73.70
20856;DHT22;63058;49.424;8.420;2023-05-07T02:42:50;18.40;73.60
20856;DHT22;63058;49.424;8.420;2023-05-07T02:45:16;18.40;73.70
20856;DHT22;63058;49.424;8.420;2023-05-07T02:47:42;18.40;73.80
20856;DHT22;63058;49.424;8.420;2023-05-07T02:50:07;18.40;73.80
20856;DHT22;63058;49.424;8.420;2023-05-07T02:52:33;18.40;73.90
20856;DHT22;63058;49.424;8.420;2023-05-07T02:54:59;18.40;73.80
20856;DHT22;63058;49.424;8.420;2023-05-07T02:57:24;18.40;73.80
20856;DHT22;63058;49.424;8.420;2023-05-07T02:59:51;18.30;73.80
20856;DHT22;63058;49.424;8.420;2023-05-07T03:02:16;18.30;73.70
20856;DHT22;63058;49.424;8.420;2023-05-07T03:04:42;18.30;73.90
20856;DHT22;63058;49.424;8.420;2023-05-07T03:07:08;18.20;73.90
20856;DHT22;63058;49.424;8.420;2023-05-07T03:09:33;18.10;74.00
20856;DHT22;63058;49.424;8.420;2023-05-07T03:11:59;18.10;74.10
20856;DHT22;63058;49.424;8.420;2023-05-07T03:14:25;18.10;74.20
20856;DHT22;63058;49.424;8.420;2023-05-07T03:16:51;18.00;74.50
20856;DHT22;63058;49.424;8.420;2023-05-07T03:19:16;18.00;75.30
20856;DHT22;63058;49.424;8.420;2023-05-07T03:21:42;17.90;75.30
20856;DHT22;63058;49.424;8.420;2023-05-07T03:24:08;17.90;74.60
20856;DHT22;63058;49.424;8.420;2023-05-07T03:26:33;17.90;74.80
20856;DHT22;63058;49.424;8.420;2023-05-07T03:28:59;17.80;74.90
20856;DHT22;63058;49.424;8.420;2023-05-07T03:31:25;17.80;75.00
20856;DHT22;63058;49.424;8.420;2023-05-07T03:33:55;17.80;75.10
20856;DHT22;63058;49.424;8.420;2023-05-07T03:36:22;17.80;75.50
20856;DHT22;63058;49.424;8.420;2023-05-07T03:38:49;17.70;75.10
20856;DHT22;63058;49.424;8.420;2023-05-07T03:41:15;17.80;75.30
20856;DHT22;63058;49.424;8.420;2023-05-07T03:43:41;17.70;75.30
20856;DHT22;63058;49.424;8.420;2023-05-07T03:46:06;17.70;75.40
20856;DHT22;63058;49.424;8.420;2023-05-07T03:48:32;17.70;75.40
20856;DHT22;63058;49.424;8.420;2023-05-07T03:50:59;17.70;75.50
20856;DHT22;63058;49.424;8.420;2023-05-07T03:53:24;17.70;75.60
20856;DHT22;63058;49.424;8.420;2023-05-07T03:55:50;17.70;75.70
20856;DHT22;63058;49.424;8.420;2023-05-07T03:58:16;17.70;75.90
20856;DHT22;63058;49.424;8.420;2023-05-07T04:00:42;17.70;75.70
20856;DHT22;63058;49.424;8.420;2023-05-07T04:03:08;17.70;75.70
20856;DHT22;63058;49.424;8.420;2023-05-07T04:05:33;17.70;75.80
20856;DHT22;63058;49.424;8.420;2023-05-07T04:07:59;17.70;75.90
20856;DHT22;63058;49.424;8.420;2023-05-07T04:10:25;17.70;75.90
20856;DHT22;63058;49.424;8.420;2023-05-07T04:12:51;17.80;76.00
20856;DHT22;63058;49.424;8.420;2023-05-07T04:15:17;17.70;75.80
20856;DHT22;63058;49.424;8.420;2023-05-07T04:17:42;17.70;75.70
20856;DHT22;63058;49.424;8.420;2023-05-07T04:20:15;17.70;75.70
20856;DHT22;63058;49.424;8.420;2023-05-07T04:22:41;17.70;76.00
20856;DHT22;63058;49.424;8.420;2023-05-07T04:25:07;17.70;75.70
20856;DHT22;63058;49.424;8.420;2023-05-07T04:27:34;17.70;75.90
20856;DHT22;63058;49.424;8.420;2023-05-07T04:30:00;17.70;76.20
20856;DHT22;63058;49.424;8.420;2023-05-07T04:32:26;17.70;76.40
20856;DHT22;63058;49.424;8.420;2023-05-07T04:34:52;17.70;76.50
20856;DHT22;63058;49.424;8.420;2023-05-07T04:37:18;17.70;76.70
20856;DHT22;63058;49.424;8.420;2023-05-07T04:39:44;17.70;76.90
20856;DHT22;63058;49.424;8.420;2023-05-07T04:42:13;17.80;77.00
20856;DHT22;63058;49.424;8.420;2023-05-07T04:44:39;17.80;77.00
20856;DHT22;63058;49.424;8.420;2023-05-07T04:47:05;17.90;77.20
20856;DHT22;63058;49.424;8.420;2023-05-07T04:49:31;17.90;77.20
20856;DHT22;63058;49.424;8.420;2023-05-07T04:51:57;18.00;77.20
20856;DHT22;63058;49.424;8.420;2023-05-07T04:54:23;18.00;77.30
20856;DHT22;63058;49.424;8.420;2023-05-07T04:56:48;18.00;77.30
20856;DHT22;63058;49.424;8.420;2023-05-07T04:59:14;18.10;77.50
20856;DHT22;63058;49.424;8.420;2023-05-07T05:01:40;18.10;77.60
20856;DHT22;63058;49.424;8.420;2023-05-07T05:04:05;18.10;77.60
20856;DHT22;63058;49.424;8.420;2023-05-07T05:06:31;18.20;77.90
20856;DHT22;63058;49.424;8.420;2023-05-07T05:08:57;18.20;77.90
20856;DHT22;63058;49.424;8.420;2023-05-07T05:11:23;18.30;78.00
20856;DHT22;63058;49.424;8.420;2023-05-07T05:13:49;18.40;78.00
20856;DHT22;63058;49.424;8.420;2023-05-07T05:16:15;18.30;78.00
20856;DHT22;63058;49.424;8.420;2023-05-07T05:18:41;18.40;77.90
20856;DHT22;63058;49.424;8.420;2023-05-07T05:21:06;18.40;77.90
20856;DHT22;63058;49.424;8.420;2023-05-07T05:23:32;18.40;77.90
20856;DHT22;63058;49.424;8.420;2023-05-07T05:25:58;18.40;78.00
20856;DHT22;63058;49.424;8.420;2023-05-07T05:28:24;18.40;78.20
20856;DHT22;63058;49.424;8.420;2023-05-07T05:30:50;18.50;78.30
20856;DHT22;63058;49.424;8.420;2023-05-07T05:33:15;18.50;78.20
20856;DHT22;63058;49.424;8.420;2023-05-07T05:35:42;18.50;78.20
20856;DHT22;63058;49.424;8.420;2023-05-07T05:38:08;18.50;78.20
20856;DHT22;63058;49.424;8.420;2023-05-07T05:40:34;18.50;78.20
20856;DHT22;63058;49.424;8.420;2023-05-07T05:43:00;18.50;78.50
20856;DHT22;63058;49.424;8.420;2023-05-07T05:45:25;18.40;78.70
20856;DHT22;63058;49.424;8.420;2023-05-07T05:47:51;18.40;78.80
20856;DHT22;63058;49.424;8.420;2023-05-07T05:50:17;18.50;79.20
20856;DHT22;63058;49.424;8.420;2023-05-07T05:52:42;18.50;79.30
20856;DHT22;63058;49.424;8.420;2023-05-07T05:55:08;18.60;79.30
20856;DHT22;63058;49.424;8.420;2023-05-07T05:57:34;18.70;79.50
20856;DHT22;63058;49.424;8.420;2023-05-07T06:00:01;18.80;79.50
20856;DHT22;63058;49.424;8.420;2023-05-07T06:02:28;18.80;79.30
20856;DHT22;63058;49.424;8.420;2023-05-07T06:04:53;18.90;79.60
20856;DHT22;63058;49.424;8.420;2023-05-07T06:07:19;18.90;79.70
20856;DHT22;63058;49.424;8.420;2023-05-07T06:09:45;19.00;79.70
20856;DHT22;63058;49.424;8.420;2023-05-07T06:12:12;19.00;79.70
20856;DHT22;63058;49.424;8.420;2023-05-07T06:14:39;19.10;79.60
20856;DHT22;63058;49.424;8.420;2023-05-07T06:17:06;19.20;79.70
20856;DHT22;63058;49.424;8.420;2023-05-07T06:19:32;19.20;79.80
20856;DHT22;63058;49.424;8.420;2023-05-07T06:21:57;19.30;79.90
20856;DHT22;63058;49.424;8.420;2023-05-07T06:24:24;19.40;80.00
20856;DHT22;63058;49.424;8.420;2023-05-07T06:26:50;19.40;79.90
20856;DHT22;63058;49.424;8.420;2023-05-07T06:29:15;19.50;80.00
20856;DHT22;63058;49.424;8.420;2023-05-07T06:31:41;19.60;80.00
20856;DHT22;63058;49.424;8.420;2023-05-07T06:34:07;19.60;80.00
20856;DHT22;63058;49.424;8.420;2023-05-07T06:36:33;19.70;80.10
20856;DHT22;63058;49.424;8.420;2023-05-07T06:38:58;19.80;80.10
20856;DHT22;63058;49.424;8.420;2023-05-07T06:41:24;19.80;80.00
20856;DHT22;63058;49.424;8.420;2023-05-07T06:43:51;19.90;80.00
20856;DHT22;63058;49.424;8.420;2023-05-07T06:46:16;20.00;79.90
20856;DHT22;63058;49.424;8.420;2023-05-07T06:48:42;20.10;80.10
20856;DHT22;63058;49.424;8.420;2023-05-07T06:51:08;20.30;80.20
20856;DHT22;63058;49.424;8.420;2023-05-07T06:53:35;20.30;80.00
20856;DHT22;63058;49.424;8.420;2023-05-07T06:56:01;20.40;80.00
20856;DHT22;63058;49.424;8.420;2023-05-07T06:58:26;20.50;79.70
20856;DHT22;63058;49.424;8.420;2023-05-07T07:00:52;20.60;79.70
20856;DHT22;63058;49.424;8.420;2023-05-07T07:03:18;20.70;79.90
20856;DHT22;63058;49.424;8.420;2023-05-07T07:05:43;20.70;79.50
20856;DHT22;63058;49.424;8.420;2023-05-07T07:08:09;20.80;79.60
20856;DHT22;63058;49.424;8.420;2023-05-07T07:10:35;20.80;79.60
20856;DHT22;63058;49.424;8.420;2023-05-07T07:13:01;20.90;79.70
20856;DHT22;63058;49.424;8.420;2023-05-07T07:15:26;21.00;79.80
20856;DHT22;63058;49.424;8.420;2023-05-07T07:17:53;21.00;79.80
20856;DHT22;63058;49.424;8.420;2023-05-07T07:20:19;21.10;79.90
20856;DHT22;63058;49.424;8.420;2023-05-07T07:22:47;21.20;80.00
20856;DHT22;63058;49.424;8.420;2023-05-07T07:25:13;21.40;79.80
20856;DHT22;63058;49.424;8.420;2023-05-07T07:27:38;21.50;80.00
20856;DHT22;63058;49.424;8.420;2023-05-07T07:30:06;21.60;79.80
20856;DHT22;63058;49.424;8.420;2023-05-07T07:32:31;21.70;79.80
20856;DHT22;63058;49.424;8.420;2023-05-07T07:34:58;21.80;79.90
20856;DHT22;63058;49.424;8.420;2023-05-07T07:37:24;21.90;79.70
20856;DHT22;63058;49.424;8.420;2023-05-07T07:39:51;22.10;79.60
20856;DHT22;63058;49.424;8.420;2023-05-07T07:42:16;22.10;79.50
20856;DHT22;63058;49.424;8.420;2023-05-07T07:44:42;22.20;79.00
20856;DHT22;63058;49.424;8.420;2023-05-07T07:47:08;22.30;79.00
20856;DHT22;63058;49.424;8.420;2023-05-07T07:49:33;22.40;78.90
20856;DHT22;63058;49.424;8.420;2023-05-07T07:51:59;22.50;79.00
20856;DHT22;63058;49.424;8.420;2023-05-07T07:54:25;22.60;78.90
20856;DHT22;63058;49.424;8.420;2023-05-07T07:59:18;22.90;78.50
20856;DHT22;63058;49.424;8.420;2023-05-07T08:01:45;23.00;78.10
20856;DHT22;63058;49.424;8.420;2023-05-07T08:04:11;23.10;77.80
20856;DHT22;63058;49.424;8.420;2023-05-07T08:06:37;23.20;77.60
20856;DHT22;63058;49.424;8.420;2023-05-07T08:09:03;23.40;77.60
20856;DHT22;63058;49.424;8.420;2023-05-07T08:11:28;23.50;77.30
20856;DHT22;63058;49.424;8.420;2023-05-07T08:13:54;23.60;76.80
20856;DHT22;63058;49.424;8.420;2023-05-07T08:16:20;23.70;76.10
20856;DHT22;63058;49.424;8.420;2023-05-07T08:18:46;23.80;75.90
20856;DHT22;63058;49.424;8.420;2023-05-07T08:21:11;23.90;75.30
20856;DHT22;63058;49.424;8.420;2023-05-07T08:23:37;24.00;74.90
20856;DHT22;63058;49.424;8.420;2023-05-07T08:26:03;24.10;75.00
20856;DHT22;63058;49.424;8.420;2023-05-07T08:28:29;24.20;74.90
20856;DHT22;63058;49.424;8.420;2023-05-07T08:30:54;24.30;74.70
20856;DHT22;63058;49.424;8.420;2023-05-07T08:33:21;24.40;74.40
20856;DHT22;63058;49.424;8.420;2023-05-07T08:35:47;24.40;74.50
20856;DHT22;63058;49.424;8.420;2023-05-07T08:38:13;24.50;74.20
20856;DHT22;63058;49.424;8.420;2023-05-07T08:40:39;24.60;73.80
20856;DHT22;63058;49.424;8.420;2023-05-07T08:43:06;24.60;73.30
20856;DHT22;63058;49.424;8.420;2023-05-07T08:45:39;24.70;73.30
20856;DHT22;63058;49.424;8.420;2023-05-07T08:48:14;24.70;72.00
20856;DHT22;63058;49.424;8.420;2023-05-07T08:50:40;24.80;72.60
20856;DHT22;63058;49.424;8.420;2023-05-07T08:53:06;24.90;72.60
20856;DHT22;63058;49.424;8.420;2023-05-07T08:55:32;25.00;72.30
20856;DHT22;63058;49.424;8.420;2023-05-07T08:57:59;25.00;71.20
20856;DHT22;63058;49.424;8.420;2023-05-07T09:00:25;25.10;71.80
20856;DHT22;63058;49.424;8.420;2023-05-07T09:02:51;25.20;71.90
20856;DHT22;63058;49.424;8.420;2023-05-07T09:05:17;25.30;71.40
20856;DHT22;63058;49.424;8.420;2023-05-07T09:07:43;25.30;70.00
20856;DHT22;63058;49.424;8.420;2023-05-07T09:10:08;25.40;69.00
20856;DHT22;63058;49.424;8.420;2023-05-07T09:12:34;25.30;68.90
20856;DHT22;63058;49.424;8.420;2023-05-07T09:15:01;25.30;69.30
20856;DHT22;63058;49.424;8.420;2023-05-07T09:17:28;25.20;68.90
20856;DHT22;63058;49.424;8.420;2023-05-07T09:19:54;25.20;69.10
20856;DHT22;63058;49.424;8.420;2023-05-07T09:22:19;25.20;69.40
20856;DHT22;63058;49.424;8.420;2023-05-07T09:24:50;25.20;69.60
20856;DHT22;63058;49.424;8.420;2023-05-07T09:27:17;25.20;68.50
20856;DHT22;63058;49.424;8.420;2023-05-07T09:29:46;25.10;69.10
20856;DHT22;63058;49.424;8.420;2023-05-07T09:32:11;25.20;69.60
20856;DHT22;63058;49.424;8.420;2023-05-07T09:34:37;25.20;69.60
20856;DHT22;63058;49.424;8.420;2023-05-07T09:37:04;25.30;68.80
20856;DHT22;63058;49.424;8.420;2023-05-07T09:39:43;25.30;69.00
20856;DHT22;63058;49.424;8.420;2023-05-07T09:42:09;25.40;68.60
20856;DHT22;63058;49.424;8.420;2023-05-07T09:44:37;25.40;68.00
20856;DHT22;63058;49.424;8.420;2023-05-07T09:47:05;25.50;67.70
20856;DHT22;63058;49.424;8.420;2023-05-07T09:49:34;25.50;67.20
20856;DHT22;63058;49.424;8.420;2023-05-07T09:52:01;25.50;67.30
20856;DHT22;63058;49.424;8.420;2023-05-07T09:54:26;25.50;67.70
20856;DHT22;63058;49.424;8.420;2023-05-07T09:56:56;25.50;67.80
20856;DHT22;63058;49.424;8.420;2023-05-07T09:59:22;25.50;68.10
20856;DHT22;63058;49.424;8.420;2023-05-07T10:01:49;25.60;68.40
20856;DHT22;63058;49.424;8.420;2023-05-07T10:04:16;25.60;68.60
20856;DHT22;63058;49.424;8.420;2023-05-07T10:06:43;25.70;68.60
20856;DHT22;63058;49.424;8.420;2023-05-07T10:09:10;25.80;68.80
20856;DHT22;63058;49.424;8.420;2023-05-07T10:11:39;25.90;69.30
20856;DHT22;63058;49.424;8.420;2023-05-07T10:14:05;26.00;68.70
20856;DHT22;63058;49.424;8.420;2023-05-07T10:16:32;26.10;69.00
20856;DHT22;63058;49.424;8.420;2023-05-07T10:19:02;26.20;69.50
20856;DHT22;63058;49.424;8.420;2023-05-07T10:21:30;26.40;68.30
20856;DHT22;63058;49.424;8.420;2023-05-07T10:24:10;26.60;69.40
20856;DHT22;63058;49.424;8.420;2023-05-07T10:26:44;26.90;68.60
20856;DHT22;63058;49.424;8.420;2023-05-07T10:29:33;27.30;69.90
20856;DHT22;63058;49.424;8.420;2023-05-07T10:34:43;28.00;68.30
20856;DHT22;63058;49.424;8.420;2023-05-07T10:37:10;28.50;68.90
20856;DHT22;63058;49.424;8.420;2023-05-07T10:39:37;28.90;69.00
20856;DHT22;63058;49.424;8.420;2023-05-07T10:42:13;29.40;68.80
20856;DHT22;63058;49.424;8.420;2023-05-07T10:44:39;29.80;64.80
20856;DHT22;63058;49.424;8.420;2023-05-07T10:47:12;30.20;66.50
20856;DHT22;63058;49.424;8.420;2023-05-07T10:52:14;30.90;63.00
20856;DHT22;63058;49.424;8.420;2023-05-07T10:54:40;31.20;62.70
20856;DHT22;63058;49.424;8.420;2023-05-07T10:57:32;31.60;64.00
20856;DHT22;63058;49.424;8.420;2023-05-07T10:59:58;31.90;61.80
20856;DHT22;63058;49.424;8.420;2023-05-07T11:05:29;32.50;57.70
20856;DHT22;63058;49.424;8.420;2023-05-07T11:08:02;32.60;59.30
20856;DHT22;63058;49.424;8.420;2023-05-07T11:10:47;32.60;56.90
20856;DHT22;63058;49.424;8.420;2023-05-07T11:13:14;32.60;55.90
20856;DHT22;63058;49.424;8.420;2023-05-07T11:15:50;32.50;56.60
20856;DHT22;63058;49.424;8.420;2023-05-07T11:18:17;32.30;56.50
20856;DHT22;63058;49.424;8.420;2023-05-07T11:20:46;32.20;57.30
20856;DHT22;63058;49.424;8.420;2023-05-07T11:26:10;32.30;57.10
20856;DHT22;63058;49.424;8.420;2023-05-07T11:28:38;32.60;57.30
20856;DHT22;63058;49.424;8.420;2023-05-07T11:31:04;32.80;58.20
20856;DHT22;63058;49.424;8.420;2023-05-07T11:33:30;33.00;56.90
20856;DHT22;63058;49.424;8.420;2023-05-07T11:35:56;33.10;56.90
20856;DHT22;63058;49.424;8.420;2023-05-07T11:38:23;33.30;56.90
20856;DHT22;63058;49.424;8.420;2023-05-07T11:40:53;33.40;57.00
20856;DHT22;63058;49.424;8.420;2023-05-07T11:43:19;33.70;56.90
20856;DHT22;63058;49.424;8.420;2023-05-07T11:45:48;33.90;56.60
20856;DHT22;63058;49.424;8.420;2023-05-07T11:48:16;34.10;54.90
20856;DHT22;63058;49.424;8.420;2023-05-07T11:51:01;34.20;55.10
20856;DHT22;63058;49.424;8.420;2023-05-07T11:53:34;34.30;52.10
20856;DHT22;63058;49.424;8.420;2023-05-07T11:56:05;34.40;54.00
20856;DHT22;63058;49.424;8.420;2023-05-07T11:58:31;34.40;53.70
20856;DHT22;63058;49.424;8.420;2023-05-07T12:00:57;34.40;53.60
20856;DHT22;63058;49.424;8.420;2023-05-07T12:03:22;34.40;53.70
20856;DHT22;63058;49.424;8.420;2023-05-07T12:05:48;34.50;53.50
20856;DHT22;63058;49.424;8.420;2023-05-07T12:08:18;34.60;53.80
20856;DHT22;63058;49.424;8.420;2023-05-07T12:10:45;34.80;53.00
20856;DHT22;63058;49.424;8.420;2023-05-07T12:13:20;34.90;53.30
20856;DHT22;63058;49.424;8.420;2023-05-07T12:15:50;35.10;51.00
20856;DHT22;63058;49.424;8.420;2023-05-07T12:18:15;35.30;52.00
20856;DHT22;63058;49.424;8.420;2023-05-07T12:20:42;35.20;51.20
20856;DHT22;63058;49.424;8.420;2023-05-07T12:23:08;35.10;50.80
20856;DHT22;63058;49.424;8.420;2023-05-07T12:25:38;35.10;50.50
20856;DHT22;63058;49.424;8.420;2023-05-07T12:28:04;35.00;50.20
20856;DHT22;63058;49.424;8.420;2023-05-07T12:30:39;35.00;51.40
20856;DHT22;63058;49.424;8.420;2023-05-07T12:33:05;35.10;50.50
20856;DHT22;63058;49.424;8.420;2023-05-07T12:35:36;35.30;51.30
20856;DHT22;63058;49.424;8.420;2023-05-07T12:38:02;35.50;51.20
20856;DHT22;63058;49.424;8.420;2023-05-07T12:41:02;35.80;51.40
20856;DHT22;63058;49.424;8.420;2023-05-07T12:43:29;36.10;49.90
20856;DHT22;63058;49.424;8.420;2023-05-07T12:45:56;36.30;50.00
20856;DHT22;63058;49.424;8.420;2023-05-07T12:48:23;36.30;48.20
20856;DHT22;63058;49.424;8.420;2023-05-07T12:50:50;36.20;47.40
20856;DHT22;63058;49.424;8.420;2023-05-07T12:53:16;35.90;46.60
20856;DHT22;63058;49.424;8.420;2023-05-07T12:55:44;35.50;46.00
20856;DHT22;63058;49.424;8.420;2023-05-07T12:58:20;35.00;45.80
20856;DHT22;63058;49.424;8.420;2023-05-07T13:00:50;34.40;45.70
20856;DHT22;63058;49.424;8.420;2023-05-07T13:03:27;33.80;46.00
20856;DHT22;63058;49.424;8.420;2023-05-07T13:05:54;33.30;46.20
20856;DHT22;63058;49.424;8.420;2023-05-07T13:08:28;32.90;47.00
20856;DHT22;63058;49.424;8.420;2023-05-07T13:10:54;32.50;46.60
20856;DHT22;63058;49.424;8.420;2023-05-07T13:13:20;32.20;47.40
20856;DHT22;63058;49.424;8.420;2023-05-07T13:15:47;31.80;47.70
20856;DHT22;63058;49.424;8.420;2023-05-07T13:18:13;31.50;47.80
20856;DHT22;63058;49.424;8.420;2023-05-07T13:20:38;31.20;48.10
20856;DHT22;63058;49.424;8.420;2023-05-07T13:23:04;30.90;48.00
20856;DHT22;63058;49.424;8.420;2023-05-07T13:25:30;30.60;48.10
20856;DHT22;63058;49.424;8.420;2023-05-07T13:27:58;30.30;48.40
20856;DHT22;63058;49.424;8.420;2023-05-07T13:30:24;30.10;48.90
20856;DHT22;63058;49.424;8.420;2023-05-07T13:32:52;29.90;49.10
20856;DHT22;63058;49.424;8.420;2023-05-07T13:35:17;29.70;49.50
20856;DHT22;63058;49.424;8.420;2023-05-07T13:37:43;29.50;49.70
20856;DHT22;63058;49.424;8.420;2023-05-07T13:40:09;29.40;49.80
20856;DHT22;63058;49.424;8.420;2023-05-07T13:42:35;29.20;50.00
20856;DHT22;63058;49.424;8.420;2023-05-07T13:45:00;29.00;50.00
20856;DHT22;63058;49.424;8.420;2023-05-07T13:47:28;29.00;50.90
20856;DHT22;63058;49.424;8.420;2023-05-07T13:49:54;28.80;50.30
20856;DHT22;63058;49.424;8.420;2023-05-07T13:52:19;28.70;50.40
20856;DHT22;63058;49.424;8.420;2023-05-07T13:54:45;28.60;50.80
20856;DHT22;63058;49.424;8.420;2023-05-07T13:57:11;28.40;50.30
20856;DHT22;63058;49.424;8.420;2023-05-07T13:59:36;28.20;51.30
20856;DHT22;63058;49.424;8.420;2023-05-07T14:02:02;28.00;52.10
20856;DHT22;63058;49.424;8.420;2023-05-07T14:04:28;27.60;51.80
20856;DHT22;63058;49.424;8.420;2023-05-07T14:06:53;27.10;52.80
20856;DHT22;63058;49.424;8.420;2023-05-07T14:09:19;26.50;54.20
20856;DHT22;63058;49.424;8.420;2023-05-07T14:11:45;25.80;55.50
20856;DHT22;63058;49.424;8.420;2023-05-07T14:14:12;25.20;57.40
20856;DHT22;63058;49.424;8.420;2023-05-07T14:16:38;24.60;59.10
20856;DHT22;63058;49.424;8.420;2023-05-07T14:19:04;24.10;60.90
20856;DHT22;63058;49.424;8.420;2023-05-07T14:21:29;23.60;62.80
20856;DHT22;63058;49.424;8.420;2023-05-07T14:23:56;23.20;65.00
20856;DHT22;63058;49.424;8.420;2023-05-07T14:26:22;22.90;66.30
20856;DHT22;63058;49.424;8.420;2023-05-07T14:28:48;22.60;67.20
20856;DHT22;63058;49.424;8.420;2023-05-07T14:31:14;22.30;69.50
20856;DHT22;63058;49.424;8.420;2023-05-07T14:33:39;22.10;70.80
20856;DHT22;63058;49.424;8.420;2023-05-07T14:36:05;21.90;73.50
20856;DHT22;63058;49.424;8.420;2023-05-07T14:38:31;21.80;75.50
20856;DHT22;63058;49.424;8.420;2023-05-07T14:40:58;21.80;76.90
20856;DHT22;63058;49.424;8.420;2023-05-07T14:43:24;21.70;78.10
20856;DHT22;63058;49.424;8.420;2023-05-07T14:45:49;21.70;79.60
20856;DHT22;63058;49.424;8.420;2023-05-07T14:48:15;21.70;80.70
20856;DHT22;63058;49.424;8.420;2023-05-07T14:50:47;21.70;81.20
20856;DHT22;63058;49.424;8.420;2023-05-07T14:53:13;21.70;82.60
20856;DHT22;63058;49.424;8.420;2023-05-07T14:55:38;21.70;82.80
20856;DHT22;63058;49.424;8.420;2023-05-07T14:58:04;21.70;83.60
20856;DHT22;63058;49.424;8.420;2023-05-07T15:00:30;21.80;84.30
20856;DHT22;63058;49.424;8.420;2023-05-07T15:03:06;21.80;84.30
20856;DHT22;63058;49.424;8.420;2023-05-07T15:05:32;21.90;84.60
20856;DHT22;63058;49.424;8.420;2023-05-07T15:07:58;22.00;84.50
20856;DHT22;63058;49.424;8.420;2023-05-07T15:10:24;22.00;84.70
20856;DHT22;63058;49.424;8.420;2023-05-07T15:12:49;22.10;84.70
20856;DHT22;63058;49.424;8.420;2023-05-07T15:15:15;22.20;84.90
20856;DHT22;63058;49.424;8.420;2023-05-07T15:17:41;22.20;85.10
20856;DHT22;63058;49.424;8.420;2023-05-07T15:20:07;22.30;85.00
20856;DHT22;63058;49.424;8.420;2023-05-07T15:22:33;22.30;85.00
20856;DHT22;63058;49.424;8.420;2023-05-07T15:24:59;22.30;84.70
20856;DHT22;63058;49.424;8.420;2023-05-07T15:27:25;22.20;84.70
20856;DHT22;63058;49.424;8.420;2023-05-07T15:29:51;22.20;84.80
20856;DHT22;63058;49.424;8.420;2023-05-07T15:32:17;22.10;84.90
20856;DHT22;63058;49.424;8.420;2023-05-07T15:34:43;22.10;85.20
20856;DHT22;63058;49.424;8.420;2023-05-07T15:37:08;22.00;85.40
20856;DHT22;63058;49.424;8.420;2023-05-07T15:39:34;22.00;85.50
20856;DHT22;63058;49.424;8.420;2023-05-07T15:41:59;22.00;85.80